New Germany, Minnesota
Current Conditions -  °F | °C
As of 1:33 PM on Tuesday 21 Oct 2014 (Local Time) from KGYL Reporting Station
Clear Clear  
Wind Chill: 60°   Ceiling: Unl
Heat Index: 60°   Visibility: 10mi
Dew Point: 44°   Wind: 12mph
Humidity: 55%   Direction: 120°ESE
Pressure: 30.13"   Gusts: NA
Location:  44.88°N, 93.97°W
Report Text: KGYL 211833Z AUTO 12010KT 10SM CLR 16/07 A3013 RMK AO2 T01560065
Loading
Personal Weather Stations






























Interactive Weather Map
Tropical Storm Tracking
New forecast layout! Learn more

10-Day Weather Forecast

Advertisements
Track Severe Weather on mobile